sensor_id;sensor_type;location;lat;lon;timestamp;pressure;altitude;pressure_sealevel;temperature;humidity
13015;BME280;6573;57.696;11.950;2023-12-20T00:00:33;99803.19;;;8.85;100.00
13015;BME280;6573;57.696;11.950;2023-12-20T00:03:02;99720.59;;;8.49;100.00
13015;BME280;6573;57.696;11.950;2023-12-20T00:05:30;99761.41;;;8.71;100.00
13015;BME280;6573;57.696;11.950;2023-12-20T00:08:00;99791.88;;;8.81;100.00
13015;BME280;6573;57.696;11.950;2023-12-20T00:10:30;99739.72;;;8.57;100.00
13015;BME280;6573;57.696;11.950;2023-12-20T00:12:58;99801.47;;;8.81;100.00
13015;BME280;6573;57.696;11.950;2023-12-20T00:15:27;99753.69;;;8.59;100.00
13015;BME280;6573;57.696;11.950;2023-12-20T00:17:57;99767.44;;;8.76;100.00
13015;BME280;6573;57.696;11.950;2023-12-20T00:20:26;99768.44;;;8.68;100.00
13015;BME280;6573;57.696;11.950;2023-12-20T00:22:56;99763.97;;;8.76;100.00
13015;BME280;6573;57.696;11.950;2023-12-20T00:25:25;99767.44;;;8.76;100.00
13015;BME280;6573;57.696;11.950;2023-12-20T00:27:53;99787.44;;;8.86;100.00
13015;BME280;6573;57.696;11.950;2023-12-20T00:30:22;99702.50;;;8.29;100.00
13015;BME280;6573;57.696;11.950;2023-12-20T00:32:50;99774.50;;;8.71;100.00
13015;BME280;6573;57.696;11.950;2023-12-20T00:35:21;99771.00;;;8.72;100.00
13015;BME280;6573;57.696;11.950;2023-12-20T00:37:49;99733.75;;;8.48;100.00
13015;BME280;6573;57.696;11.950;2023-12-20T00:40:18;99757.97;;;8.66;100.00
13015;BME280;6573;57.696;11.950;2023-12-20T00:42:47;99744.06;;;8.60;100.00
13015;BME280;6573;57.696;11.950;2023-12-20T00:45:16;99746.66;;;8.61;100.00
13015;BME280;6573;57.696;11.950;2023-12-20T00:47:45;99718.91;;;8.45;100.00
13015;BME280;6573;57.696;11.950;2023-12-20T00:50:14;99699.72;;;8.43;100.00
13015;BME280;6573;57.696;11.950;2023-12-20T00:52:44;99725.66;;;8.64;100.00
13015;BME280;6573;57.696;11.950;2023-12-20T00:55:13;99716.94;;;8.65;100.00
13015;BME280;6573;57.696;11.950;2023-12-20T00:57:42;99657.91;;;8.34;100.00
13015;BME280;6573;57.696;11.950;2023-12-20T01:00:11;99687.38;;;8.51;100.00
13015;BME280;6573;57.696;11.950;2023-12-20T01:02:40;99673.28;;;8.61;100.00
13015;BME280;6573;57.696;11.950;2023-12-20T01:05:09;99714.94;;;8.82;100.00
13015;BME280;6573;57.696;11.950;2023-12-20T01:07:38;99728.00;;;8.87;100.00
13015;BME280;6573;57.696;11.950;2023-12-20T01:10:08;99716.59;;;8.89;100.00
13015;BME280;6573;57.696;11.950;2023-12-20T01:12:37;99661.09;;;8.57;100.00
13015;BME280;6573;57.696;11.950;2023-12-20T01:15:06;99710.41;;;8.93;100.00
13015;BME280;6573;57.696;11.950;2023-12-20T01:17:34;99648.81;;;8.62;100.00
13015;BME280;6573;57.696;11.950;2023-12-20T01:20:04;99704.25;;;8.97;100.00
13015;BME280;6573;57.696;11.950;2023-12-20T01:22:33;99705.97;;;8.98;100.00
13015;BME280;6573;57.696;11.950;2023-12-20T01:25:03;99688.69;;;8.85;100.00
13015;BME280;6573;57.696;11.950;2023-12-20T01:27:33;99692.16;;;8.87;100.00
13015;BME280;6573;57.696;11.950;2023-12-20T01:30:01;99679.84;;;8.92;100.00
13015;BME280;6573;57.696;11.950;2023-12-20T01:32:31;99686.78;;;8.96;100.00
13015;BME280;6573;57.696;11.950;2023-12-20T01:34:59;99593.00;;;8.54;100.00
13015;BME280;6573;57.696;11.950;2023-12-20T01:37:29;99663.78;;;9.13;100.00
13015;BME280;6573;57.696;11.950;2023-12-20T01:39:58;99665.72;;;9.02;100.00
13015;BME280;6573;57.696;11.950;2023-12-20T01:42:26;99649.97;;;9.02;100.00
13015;BME280;6573;57.696;11.950;2023-12-20T01:44:57;99650.09;;;8.93;100.00
13015;BME280;6573;57.696;11.950;2023-12-20T01:47:26;99605.91;;;8.66;100.00
13015;BME280;6573;57.696;11.950;2023-12-20T01:49:55;99616.09;;;8.87;100.00
13015;BME280;6573;57.696;11.950;2023-12-20T01:52:25;99630.81;;;8.97;100.00
13015;BME280;6573;57.696;11.950;2023-12-20T01:54:55;99629.19;;;8.90;100.00
13015;BME280;6573;57.696;11.950;2023-12-20T01:57:30;99581.41;;;8.69;100.00
13015;BME280;6573;57.696;11.950;2023-12-20T02:00:01;99608.28;;;8.84;100.00
13015;BME280;6573;57.696;11.950;2023-12-20T02:02:30;99618.44;;;9.05;100.00
13015;BME280;6573;57.696;11.950;2023-12-20T02:04:59;99588.91;;;8.94;100.00
13015;BME280;6573;57.696;11.950;2023-12-20T02:07:30;99604.38;;;9.09;100.00
13015;BME280;6573;57.696;11.950;2023-12-20T02:10:00;99589.78;;;8.95;100.00
13015;BME280;6573;57.696;11.950;2023-12-20T02:12:29;99578.59;;;8.82;100.00
13015;BME280;6573;57.696;11.950;2023-12-20T02:14:57;99594.94;;;8.99;100.00
13015;BME280;6573;57.696;11.950;2023-12-20T02:17:27;99512.56;;;8.59;100.00
13015;BME280;6573;57.696;11.950;2023-12-20T02:19:58;99529.16;;;8.60;100.00
13015;BME280;6573;57.696;11.950;2023-12-20T02:22:28;99587.16;;;8.93;100.00
13015;BME280;6573;57.696;11.950;2023-12-20T02:24:57;99531.59;;;8.70;100.00
13015;BME280;6573;57.696;11.950;2023-12-20T02:27:26;99485.75;;;8.42;100.00
13015;BME280;6573;57.696;11.950;2023-12-20T02:29:55;99522.91;;;8.68;100.00
13015;BME280;6573;57.696;11.950;2023-12-20T02:32:24;99548.69;;;8.95;100.00
13015;BME280;6573;57.696;11.950;2023-12-20T02:34:55;99541.53;;;9.03;100.00
13015;BME280;6573;57.696;11.950;2023-12-20T02:37:23;99529.41;;;8.96;100.00
13015;BME280;6573;57.696;11.950;2023-12-20T02:39:54;99495.66;;;8.77;100.00
13015;BME280;6573;57.696;11.950;2023-12-20T02:42:23;99499.81;;;8.88;100.00
13015;BME280;6573;57.696;11.950;2023-12-20T02:44:51;99534.66;;;8.96;100.00
13015;BME280;6573;57.696;11.950;2023-12-20T02:47:20;99518.00;;;9.00;100.00
13015;BME280;6573;57.696;11.950;2023-12-20T02:49:48;99464.94;;;8.83;100.00
13015;BME280;6573;57.696;11.950;2023-12-20T02:52:18;99520.72;;;8.94;100.00
13015;BME280;6573;57.696;11.950;2023-12-20T02:54:47;99513.50;;;9.05;100.00
13015;BME280;6573;57.696;11.950;2023-12-20T02:57:17;99454.59;;;8.77;100.00
13015;BME280;6573;57.696;11.950;2023-12-20T02:59:46;99503.19;;;8.96;100.00
13015;BME280;6573;57.696;11.950;2023-12-20T03:02:15;99498.00;;;8.93;100.00
13015;BME280;6573;57.696;11.950;2023-12-20T03:04:44;99492.59;;;9.02;100.00
13015;BME280;6573;57.696;11.950;2023-12-20T03:07:12;99497.56;;;9.18;100.00
13015;BME280;6573;57.696;11.950;2023-12-20T03:09:41;99490.50;;;9.23;100.00
13015;BME280;6573;57.696;11.950;2023-12-20T03:12:31;99475.75;;;9.14;100.00
13015;BME280;6573;57.696;11.950;2023-12-20T03:14:59;99464.53;;;9.07;100.00
13015;BME280;6573;57.696;11.950;2023-12-20T03:17:27;99474.75;;;9.23;100.00
13015;BME280;6573;57.696;11.950;2023-12-20T03:19:56;99466.09;;;9.18;100.00
13015;BME280;6573;57.696;11.950;2023-12-20T03:22:24;99455.53;;;9.21;100.00
13015;BME280;6573;57.696;11.950;2023-12-20T03:24:53;99440.06;;;9.05;100.00
13015;BME280;6573;57.696;11.950;2023-12-20T03:27:22;99460.69;;;9.25;100.00
13015;BME280;6573;57.696;11.950;2023-12-20T03:29:53;99393.88;;;9.00;100.00
13015;BME280;6573;57.696;11.950;2023-12-20T03:32:21;99455.75;;;9.08;100.00
13015;BME280;6573;57.696;11.950;2023-12-20T03:34:50;99432.56;;;8.87;100.00
13015;BME280;6573;57.696;11.950;2023-12-20T03:37:18;99479.16;;;9.19;100.00
13015;BME280;6573;57.696;11.950;2023-12-20T03:39:48;99461.19;;;8.99;100.00
13015;BME280;6573;57.696;11.950;2023-12-20T03:42:17;99472.03;;;8.78;100.00
13015;BME280;6573;57.696;11.950;2023-12-20T03:44:45;99434.34;;;8.85;100.00
13015;BME280;6573;57.696;11.950;2023-12-20T03:47:17;99402.31;;;8.68;100.00
13015;BME280;6573;57.696;11.950;2023-12-20T03:49:48;99418.53;;;8.88;100.00
13015;BME280;6573;57.696;11.950;2023-12-20T03:52:17;99439.31;;;8.99;100.00
13015;BME280;6573;57.696;11.950;2023-12-20T03:54:46;99419.22;;;8.99;100.00
13015;BME280;6573;57.696;11.950;2023-12-20T03:57:14;99374.19;;;8.76;100.00
13015;BME280;6573;57.696;11.950;2023-12-20T03:59:43;99413.97;;;8.99;100.00
13015;BME280;6573;57.696;11.950;2023-12-20T04:02:12;99401.81;;;8.95;100.00
13015;BME280;6573;57.696;11.950;2023-12-20T04:04:42;99392.84;;;9.05;100.00
13015;BME280;6573;57.696;11.950;2023-12-20T04:07:10;99420.78;;;9.09;100.00
13015;BME280;6573;57.696;11.950;2023-12-20T04:09:40;99382.78;;;8.84;100.00
13015;BME280;6573;57.696;11.950;2023-12-20T04:12:09;99403.44;;;9.02;100.00
13015;BME280;6573;57.696;11.950;2023-12-20T04:14:37;99346.50;;;8.63;100.00
13015;BME280;6573;57.696;11.950;2023-12-20T04:17:05;99387.94;;;8.90;100.00
13015;BME280;6573;57.696;11.950;2023-12-20T04:19:34;99394.72;;;9.00;100.00
13015;BME280;6573;57.696;11.950;2023-12-20T04:22:04;99386.09;;;8.95;100.00
13015;BME280;6573;57.696;11.950;2023-12-20T04:24:33;99416.31;;;9.13;100.00
13015;BME280;6573;57.696;11.950;2023-12-20T04:27:01;99411.25;;;9.04;100.00
13015;BME280;6573;57.696;11.950;2023-12-20T04:29:30;99368.72;;;8.88;100.00
13015;BME280;6573;57.696;11.950;2023-12-20T04:31:58;99414.63;;;9.10;100.00
13015;BME280;6573;57.696;11.950;2023-12-20T04:34:28;99382.75;;;8.87;100.00
13015;BME280;6573;57.696;11.950;2023-12-20T04:36:56;99387.19;;;8.82;100.00
13015;BME280;6573;57.696;11.950;2023-12-20T04:39:26;99316.16;;;8.48;100.00
13015;BME280;6573;57.696;11.950;2023-12-20T04:41:55;99370.50;;;8.86;100.00
13015;BME280;6573;57.696;11.950;2023-12-20T04:44:23;99320.31;;;8.62;100.00
13015;BME280;6573;57.696;11.950;2023-12-20T04:46:52;99357.38;;;8.88;100.00
13015;BME280;6573;57.696;11.950;2023-12-20T04:49:20;99362.50;;;8.94;100.00
13015;BME280;6573;57.696;11.950;2023-12-20T04:51:49;99366.97;;;8.90;100.00
13015;BME280;6573;57.696;11.950;2023-12-20T04:54:18;99336.53;;;8.82;100.00
13015;BME280;6573;57.696;11.950;2023-12-20T04:56:49;99357.69;;;9.16;100.00
13015;BME280;6573;57.696;11.950;2023-12-20T04:59:18;99325.63;;;9.01;100.00
13015;BME280;6573;57.696;11.950;2023-12-20T05:01:46;99346.34;;;9.13;100.00
13015;BME280;6573;57.696;11.950;2023-12-20T05:04:15;99293.84;;;8.75;100.00
13015;BME280;6573;57.696;11.950;2023-12-20T05:06:43;99350.78;;;9.11;100.00
13015;BME280;6573;57.696;11.950;2023-12-20T05:09:12;99351.56;;;9.17;100.00
13015;BME280;6573;57.696;11.950;2023-12-20T05:11:40;99288.34;;;8.87;100.00
13015;BME280;6573;57.696;11.950;2023-12-20T05:14:10;99341.22;;;9.09;100.00
13015;BME280;6573;57.696;11.950;2023-12-20T05:16:39;99314.38;;;8.96;100.00
13015;BME280;6573;57.696;11.950;2023-12-20T05:19:07;99337.59;;;9.15;100.00
13015;BME280;6573;57.696;11.950;2023-12-20T05:21:36;99325.25;;;9.20;100.00
13015;BME280;6573;57.696;11.950;2023-12-20T05:24:05;99321.53;;;9.30;100.00
13015;BME280;6573;57.696;11.950;2023-12-20T05:26:33;99310.06;;;9.34;100.00
13015;BME280;6573;57.696;11.950;2023-12-20T05:29:03;99320.34;;;9.43;100.00
13015;BME280;6573;57.696;11.950;2023-12-20T05:31:33;99308.97;;;9.44;100.00
13015;BME280;6573;57.696;11.950;2023-12-20T05:34:03;99303.13;;;9.33;100.00
13015;BME280;6573;57.696;11.950;2023-12-20T05:36:51;99251.16;;;9.08;100.00
13015;BME280;6573;57.696;11.950;2023-12-20T05:39:23;99270.44;;;9.06;100.00
13015;BME280;6573;57.696;11.950;2023-12-20T05:41:52;99278.94;;;9.19;100.00
13015;BME280;6573;57.696;11.950;2023-12-20T05:44:21;99291.16;;;9.20;100.00
13015;BME280;6573;57.696;11.950;2023-12-20T05:46:51;99234.75;;;9.00;100.00
13015;BME280;6573;57.696;11.950;2023-12-20T05:49:20;99283.78;;;9.37;100.00
13015;BME280;6573;57.696;11.950;2023-12-20T05:51:49;99269.66;;;9.41;100.00
13015;BME280;6573;57.696;11.950;2023-12-20T05:54:18;99266.56;;;9.24;100.00
13015;BME280;6573;57.696;11.950;2023-12-20T05:56:46;99292.47;;;9.39;100.00
13015;BME280;6573;57.696;11.950;2023-12-20T05:59:15;99240.63;;;9.11;100.00
13015;BME280;6573;57.696;11.950;2023-12-20T06:01:44;99289.41;;;9.19;100.00
13015;BME280;6573;57.696;11.950;2023-12-20T06:04:14;99231.97;;;9.06;100.00
13015;BME280;6573;57.696;11.950;2023-12-20T06:06:43;99195.88;;;8.79;100.00
13015;BME280;6573;57.696;11.950;2023-12-20T06:09:12;99261.66;;;9.08;100.00
13015;BME280;6573;57.696;11.950;2023-12-20T06:11:42;99246.06;;;9.02;100.00
13015;BME280;6573;57.696;11.950;2023-12-20T06:14:11;99240.94;;;8.96;100.00
13015;BME280;6573;57.696;11.950;2023-12-20T06:16:39;99281.44;;;9.25;100.00
13015;BME280;6573;57.696;11.950;2023-12-20T06:19:07;99271.47;;;9.39;100.00
13015;BME280;6573;57.696;11.950;2023-12-20T06:21:37;99276.59;;;9.45;100.00
13015;BME280;6573;57.696;11.950;2023-12-20T06:24:19;99222.56;;;8.98;100.00
13015;BME280;6573;57.696;11.950;2023-12-20T06:26:59;99178.41;;;8.78;100.00
13015;BME280;6573;57.696;11.950;2023-12-20T06:29:40;99267.56;;;9.20;100.00
13015;BME280;6573;57.696;11.950;2023-12-20T06:32:11;99263.13;;;9.22;100.00
13015;BME280;6573;57.696;11.950;2023-12-20T06:34:39;99264.88;;;9.23;100.00
13015;BME280;6573;57.696;11.950;2023-12-20T06:37:10;99257.88;;;9.22;100.00
13015;BME280;6573;57.696;11.950;2023-12-20T06:39:39;99216.53;;;8.94;100.00
13015;BME280;6573;57.696;11.950;2023-12-20T06:42:08;99267.16;;;9.36;100.00
13015;BME280;6573;57.696;11.950;2023-12-20T06:44:36;99224.75;;;9.18;100.00
13015;BME280;6573;57.696;11.950;2023-12-20T06:47:06;99238.69;;;9.20;100.00
13015;BME280;6573;57.696;11.950;2023-12-20T06:49:34;99229.78;;;9.27;100.00
13015;BME280;6573;57.696;11.950;2023-12-20T06:52:03;99244.06;;;9.13;100.00
13015;BME280;6573;57.696;11.950;2023-12-20T06:54:45;99244.09;;;9.12;100.00
13015;BME280;6573;57.696;11.950;2023-12-20T06:57:18;99223.28;;;9.04;100.00
13015;BME280;6573;57.696;11.950;2023-12-20T06:59:53;99168.34;;;8.60;100.00
13015;BME280;6573;57.696;11.950;2023-12-20T07:02:29;99229.84;;;9.24;100.00
13015;BME280;6573;57.696;11.950;2023-12-20T07:04:58;99208.53;;;9.00;100.00
13015;BME280;6573;57.696;11.950;2023-12-20T07:07:27;99228.97;;;9.23;100.00
13015;BME280;6573;57.696;11.950;2023-12-20T07:09:57;99220.22;;;9.24;100.00
13015;BME280;6573;57.696;11.950;2023-12-20T07:12:25;99211.22;;;8.97;100.00
13015;BME280;6573;57.696;11.950;2023-12-20T07:14:55;99203.75;;;8.79;100.00
13015;BME280;6573;57.696;11.950;2023-12-20T07:17:24;99181.66;;;8.89;100.00
13015;BME280;6573;57.696;11.950;2023-12-20T07:19:52;99229.31;;;9.08;100.00
13015;BME280;6573;57.696;11.950;2023-12-20T07:22:21;99212.88;;;9.01;100.00
13015;BME280;6573;57.696;11.950;2023-12-20T07:24:49;99219.91;;;8.99;100.00
13015;BME280;6573;57.696;11.950;2023-12-20T07:27:21;99214.94;;;8.87;100.00
13015;BME280;6573;57.696;11.950;2023-12-20T07:29:49;99168.34;;;8.60;100.00
13015;BME280;6573;57.696;11.950;2023-12-20T07:32:18;99230.59;;;8.90;100.00
13015;BME280;6573;57.696;11.950;2023-12-20T07:34:47;99189.16;;;8.66;100.00
13015;BME280;6573;57.696;11.950;2023-12-20T07:37:15;99228.81;;;8.92;100.00
13015;BME280;6573;57.696;11.950;2023-12-20T07:39:44;99199.25;;;8.84;100.00
13015;BME280;6573;57.696;11.950;2023-12-20T07:42:13;99221.66;;;9.00;100.00
13015;BME280;6573;57.696;11.950;2023-12-20T07:44:43;99175.22;;;8.64;100.00
13015;BME280;6573;57.696;11.950;2023-12-20T07:47:12;99207.94;;;8.86;100.00
13015;BME280;6573;57.696;11.950;2023-12-20T07:49:44;99231.97;;;9.06;100.00
13015;BME280;6573;57.696;11.950;2023-12-20T07:52:13;99239.91;;;9.03;100.00
13015;BME280;6573;57.696;11.950;2023-12-20T07:54:54;99131.66;;;8.60;100.00
13015;BME280;6573;57.696;11.950;2023-12-20T07:57:43;99081.78;;;8.22;100.00
13015;BME280;6573;57.696;11.950;2023-12-20T08:00:14;99182.00;;;8.74;100.00
13015;BME280;6573;57.696;11.950;2023-12-20T08:02:43;99216.56;;;8.91;100.00
13015;BME280;6573;57.696;11.950;2023-12-20T08:05:11;99216.84;;;8.79;100.00
13015;BME280;6573;57.696;11.950;2023-12-20T08:07:42;99216.78;;;8.82;100.00
13015;BME280;6573;57.696;11.950;2023-12-20T08:10:11;99221.25;;;8.77;100.00
13015;BME280;6573;57.696;11.950;2023-12-20T08:12:40;99160.91;;;8.39;100.00
13015;BME280;6573;57.696;11.950;2023-12-20T08:15:09;99196.13;;;8.67;100.00
13015;BME280;6573;57.696;11.950;2023-12-20T08:17:39;99175.34;;;8.60;100.00
13015;BME280;6573;57.696;11.950;2023-12-20T08:20:12;99223.88;;;8.77;100.00
13015;BME280;6573;57.696;11.950;2023-12-20T08:22:49;99206.31;;;8.82;100.00
13015;BME280;6573;57.696;11.950;2023-12-20T08:25:18;99201.19;;;8.76;100.00
13015;BME280;6573;57.696;11.950;2023-12-20T08:27:50;99092.78;;;7.98;100.00
13015;BME280;6573;57.696;11.950;2023-12-20T08:30:20;99084.44;;;7.77;100.00
13015;BME280;6573;57.696;11.950;2023-12-20T08:32:53;99181.56;;;8.54;100.00
13015;BME280;6573;57.696;11.950;2023-12-20T08:35:22;99186.03;;;8.49;100.00
13015;BME280;6573;57.696;11.950;2023-12-20T08:37:51;99215.38;;;8.66;100.00
13015;BME280;6573;57.696;11.950;2023-12-20T08:40:22;99127.97;;;8.27;100.00
13015;BME280;6573;57.696;11.950;2023-12-20T08:42:52;99177.44;;;8.42;100.00
13015;BME280;6573;57.696;11.950;2023-12-20T08:45:22;99206.47;;;8.73;100.00
13015;BME280;6573;57.696;11.950;2023-12-20T08:47:52;99191.50;;;8.80;100.00
13015;BME280;6573;57.696;11.950;2023-12-20T08:50:25;99196.53;;;8.89;100.00
13015;BME280;6573;57.696;11.950;2023-12-20T08:52:53;99121.69;;;8.36;100.00
13015;BME280;6573;57.696;11.950;2023-12-20T08:55:22;99208.94;;;8.81;100.00
13015;BME280;6573;57.696;11.950;2023-12-20T08:57:51;99187.50;;;8.62;100.00
13015;BME280;6573;57.696;11.950;2023-12-20T09:00:21;99213.47;;;8.74;100.00
13015;BME280;6573;57.696;11.950;2023-12-20T09:02:53;99215.19;;;8.75;100.00
13015;BME280;6573;57.696;11.950;2023-12-20T09:05:21;99217.91;;;8.71;100.00
13015;BME280;6573;57.696;11.950;2023-12-20T09:07:50;99203.63;;;8.85;100.00
13015;BME280;6573;57.696;11.950;2023-12-20T09:10:20;99195.94;;;8.76;100.00
13015;BME280;6573;57.696;11.950;2023-12-20T09:12:50;99180.34;;;8.70;100.00
13015;BME280;6573;57.696;11.950;2023-12-20T09:15:23;99196.00;;;8.73;100.00
13015;BME280;6573;57.696;11.950;2023-12-20T09:17:55;99195.66;;;8.88;100.00
13015;BME280;6573;57.696;11.950;2023-12-20T09:20:23;99138.75;;;8.55;100.00
13015;BME280;6573;57.696;11.950;2023-12-20T09:22:52;99204.88;;;9.06;100.00
13015;BME280;6573;57.696;11.950;2023-12-20T09:25:21;99187.50;;;9.02;100.00
13015;BME280;6573;57.696;11.950;2023-12-20T09:27:51;99198.88;;;9.02;100.00
13015;BME280;6573;57.696;11.950;2023-12-20T09:30:20;99195.75;;;8.85;100.00
13015;BME280;6573;57.696;11.950;2023-12-20T09:32:55;99192.28;;;8.83;100.00
13015;BME280;6573;57.696;11.950;2023-12-20T09:35:23;99183.66;;;8.78;100.00
13015;BME280;6573;57.696;11.950;2023-12-20T09:37:53;99141.84;;;8.72;100.00
13015;BME280;6573;57.696;11.950;2023-12-20T09:40:22;99178.28;;;8.84;100.00
13015;BME280;6573;57.696;11.950;2023-12-20T09:42:57;99183.19;;;8.99;100.00
13015;BME280;6573;57.696;11.950;2023-12-20T09:45:25;99161.09;;;8.71;100.00
13015;BME280;6573;57.696;11.950;2023-12-20T09:47:57;99185.88;;;8.96;100.00
13015;BME280;6573;57.696;11.950;2023-12-20T09:50:26;99165.13;;;8.87;100.00
13015;BME280;6573;57.696;11.950;2023-12-20T09:52:57;99202.44;;;8.98;100.00
13015;BME280;6573;57.696;11.950;2023-12-20T09:55:27;99176.81;;;8.73;100.00
13015;BME280;6573;57.696;11.950;2023-12-20T09:57:56;99186.97;;;8.88;100.00
13015;BME280;6573;57.696;11.950;2023-12-20T10:00:25;99186.78;;;8.95;100.00
13015;BME280;6573;57.696;11.950;2023-12-20T10:02:59;99175.53;;;8.90;100.00
13015;BME280;6573;57.696;11.950;2023-12-20T10:05:29;99103.41;;;8.71;100.00
13015;BME280;6573;57.696;11.950;2023-12-20T10:08:00;99058.47;;;8.51;100.00
13015;BME280;6573;57.696;11.950;2023-12-20T10:10:29;99139.44;;;9.01;100.00
13015;BME280;6573;57.696;11.950;2023-12-20T10:13:12;99087.50;;;8.80;100.00
13015;BME280;6573;57.696;11.950;2023-12-20T10:15:41;99145.47;;;9.05;100.00
13015;BME280;6573;57.696;11.950;2023-12-20T10:18:12;99137.84;;;8.94;100.00
13015;BME280;6573;57.696;11.950;2023-12-20T10:20:41;99146.41;;;9.02;100.00
13015;BME280;6573;57.696;11.950;2023-12-20T10:23:10;99145.03;;;9.23;100.00
13015;BME280;6573;57.696;11.950;2023-12-20T10:25:40;99134.81;;;9.11;100.00
13015;BME280;6573;57.696;11.950;2023-12-20T10:28:10;99096.03;;;8.88;100.00
13015;BME280;6573;57.696;11.950;2023-12-20T10:30:40;99094.44;;;8.81;100.00
13015;BME280;6573;57.696;11.950;2023-12-20T10:33:11;99141.59;;;9.21;100.00
13015;BME280;6573;57.696;11.950;2023-12-20T10:35:40;99128.94;;;9.01;100.00
13015;BME280;6573;57.696;11.950;2023-12-20T10:38:14;99058.03;;;8.69;100.00
13015;BME280;6573;57.696;11.950;2023-12-20T10:40:45;99143.50;;;9.15;100.00
13015;BME280;6573;57.696;11.950;2023-12-20T10:43:14;99120.09;;;9.05;100.00
13015;BME280;6573;57.696;11.950;2023-12-20T10:45:43;99123.75;;;8.98;100.00
13015;BME280;6573;57.696;11.950;2023-12-20T10:48:13;99079.00;;;8.69;100.00
13015;BME280;6573;57.696;11.950;2023-12-20T10:50:43;99116.75;;;9.00;100.00
13015;BME280;6573;57.696;11.950;2023-12-20T10:53:13;99121.75;;;9.09;100.00
13015;BME280;6573;57.696;11.950;2023-12-20T10:55:44;99120.03;;;9.08;100.00
13015;BME280;6573;57.696;11.950;2023-12-20T10:58:14;99037.66;;;8.45;100.00
13015;BME280;6573;57.696;11.950;2023-12-20T11:00:44;99124.91;;;9.24;100.00
13015;BME280;6573;57.696;11.950;2023-12-20T11:03:17;99133.91;;;9.13;100.00
13015;BME280;6573;57.696;11.950;2023-12-20T11:05:55;99119.97;;;9.11;100.00
13015;BME280;6573;57.696;11.950;2023-12-20T11:08:31;99081.91;;;8.95;100.00
13015;BME280;6573;57.696;11.950;2023-12-20T11:11:06;99111.09;;;9.17;100.00
13015;BME280;6573;57.696;11.950;2023-12-20T11:13:37;99114.94;;;9.02;100.00
13015;BME280;6573;57.696;11.950;2023-12-20T11:16:09;99109.41;;;9.15;100.00
13015;BME280;6573;57.696;11.950;2023-12-20T11:18:40;99078.94;;;9.09;100.00
13015;BME280;6573;57.696;11.950;2023-12-20T11:21:10;99081.81;;;8.98;100.00
13015;BME280;6573;57.696;11.950;2023-12-20T11:23:42;99097.41;;;9.04;100.00
13015;BME280;6573;57.696;11.950;2023-12-20T11:26:15;99103.84;;;9.27;100.00
13015;BME280;6573;57.696;11.950;2023-12-20T11:28:45;99109.72;;;9.36;100.00
13015;BME280;6573;57.696;11.950;2023-12-20T11:31:15;99098.66;;;9.24;100.00
13015;BME280;6573;57.696;11.950;2023-12-20T11:33:46;99078.50;;;9.26;100.00
13015;BME280;6573;57.696;11.950;2023-12-20T11:36:18;99098.84;;;9.51;100.00
13015;BME280;6573;57.696;11.950;2023-12-20T11:38:54;98982.94;;;8.68;100.00
13015;BME280;6573;57.696;11.950;2023-12-20T11:41:23;99096.78;;;9.29;100.00
13015;BME280;6573;57.696;11.950;2023-12-20T11:43:53;99073.16;;;9.30;100.00
13015;BME280;6573;57.696;11.950;2023-12-20T11:46:22;99102.81;;;9.66;100.00
13015;BME280;6573;57.696;11.950;2023-12-20T11:48:52;99099.72;;;9.83;100.00
13015;BME280;6573;57.696;11.950;2023-12-20T11:51:21;99081.66;;;9.72;100.00
13015;BME280;6573;57.696;11.950;2023-12-20T11:53:53;99106.25;;;9.68;100.00
13015;BME280;6573;57.696;11.950;2023-12-20T11:56:22;99108.47;;;9.51;100.00
13015;BME280;6573;57.696;11.950;2023-12-20T11:58:50;99111.75;;;9.59;100.00
13015;BME280;6573;57.696;11.950;2023-12-20T12:01:20;99103.41;;;9.45;100.00
13015;BME280;6573;57.696;11.950;2023-12-20T12:04:03;99104.22;;;9.79;100.00
13015;BME280;6573;57.696;11.950;2023-12-20T12:06:33;99037.44;;;9.25;100.00
13015;BME280;6573;57.696;11.950;2023-12-20T12:09:02;99027.41;;;9.06;100.00
13015;BME280;6573;57.696;11.950;2023-12-20T12:11:31;99100.69;;;9.80;100.00
13015;BME280;6573;57.696;11.950;2023-12-20T12:14:01;99092.50;;;9.91;100.00
13015;BME280;6573;57.696;11.950;2023-12-20T12:16:30;99098.47;;;9.97;100.00
13015;BME280;6573;57.696;11.950;2023-12-20T12:18:59;99109.41;;;9.82;100.00
13015;BME280;6573;57.696;11.950;2023-12-20T12:21:29;99105.25;;;9.73;100.00
13015;BME280;6573;57.696;11.950;2023-12-20T12:24:07;99072.25;;;9.65;100.00
13015;BME280;6573;57.696;11.950;2023-12-20T12:26:35;99104.72;;;9.61;100.00
13015;BME280;6573;57.696;11.950;2023-12-20T12:29:07;99106.25;;;9.68;100.00
13015;BME280;6573;57.696;11.950;2023-12-20T12:31:36;99111.69;;;9.62;100.00
13015;BME280;6573;57.696;11.950;2023-12-20T12:34:05;99087.78;;;9.39;100.00
13015;BME280;6573;57.696;11.950;2023-12-20T12:36:37;99054.31;;;9.15;100.00
13015;BME280;6573;57.696;11.950;2023-12-20T12:39:06;99054.81;;;9.29;100.00
13015;BME280;6573;57.696;11.950;2023-12-20T12:41:34;99083.97;;;9.52;100.00
13015;BME280;6573;57.696;11.950;2023-12-20T12:44:03;99094.66;;;9.43;100.00
13015;BME280;6573;57.696;11.950;2023-12-20T12:46:43;99110.34;;;9.46;100.00
13015;BME280;6573;57.696;11.950;2023-12-20T12:49:11;99108.47;;;9.51;100.00
13015;BME280;6573;57.696;11.950;2023-12-20T12:51:41;99100.22;;;9.31;100.00
13015;BME280;6573;57.696;11.950;2023-12-20T12:54:10;99108.47;;;9.51;100.00
13015;BME280;6573;57.696;11.950;2023-12-20T12:56:40;99100.16;;;9.34;100.00
13015;BME280;6573;57.696;11.950;2023-12-20T12:59:08;99080.56;;;9.13;100.00
13015;BME280;6573;57.696;11.950;2023-12-20T13:01:37;99089.84;;;9.28;100.00
13015;BME280;6573;57.696;11.950;2023-12-20T13:04:06;99114.34;;;9.27;100.00
13015;BME280;6573;57.696;11.950;2023-12-20T13:06:38;99106.53;;;9.24;100.00
13015;BME280;6573;57.696;11.950;2023-12-20T13:09:09;99083.16;;;9.15;100.00
13015;BME280;6573;57.696;11.950;2023-12-20T13:11:38;99107.91;;;9.04;100.00
13015;BME280;6573;57.696;11.950;2023-12-20T13:14:06;99111.50;;;9.00;100.00